sensor_id;sensor_type;location;lat;lon;timestamp;P1;durP1;ratioP1;P2;durP2;ratioP2
20527;SDS011;23612;50.894;10.700;2023-08-12T00:00:19;6.15;;;5.18;;
20527;SDS011;23612;50.894;10.700;2023-08-12T00:02:44;6.38;;;5.00;;
20527;SDS011;23612;50.894;10.700;2023-08-12T00:05:11;6.75;;;4.82;;
20527;SDS011;23612;50.894;10.700;2023-08-12T00:07:37;5.45;;;4.32;;
20527;SDS011;23612;50.894;10.700;2023-08-12T00:10:05;4.95;;;4.03;;
20527;SDS011;23612;50.894;10.700;2023-08-12T00:12:32;9.63;;;4.07;;
20527;SDS011;23612;50.894;10.700;2023-08-12T00:14:59;6.80;;;3.85;;
20527;SDS011;23612;50.894;10.700;2023-08-12T00:17:25;8.27;;;3.80;;
20527;SDS011;23612;50.894;10.700;2023-08-12T00:19:51;6.88;;;3.70;;
20527;SDS011;23612;50.894;10.700;2023-08-12T00:22:17;8.30;;;3.97;;
20527;SDS011;23612;50.894;10.700;2023-08-12T00:24:42;5.10;;;3.63;;
20527;SDS011;23612;50.894;10.700;2023-08-12T00:27:08;6.15;;;3.90;;
20527;SDS011;23612;50.894;10.700;2023-08-12T00:29:34;7.85;;;4.03;;
20527;SDS011;23612;50.894;10.700;2023-08-12T00:32:00;5.47;;;4.35;;
20527;SDS011;23612;50.894;10.700;2023-08-12T00:34:26;6.70;;;3.92;;
20527;SDS011;23612;50.894;10.700;2023-08-12T00:36:51;4.63;;;3.83;;
20527;SDS011;23612;50.894;10.700;2023-08-12T00:39:17;5.78;;;4.90;;
20527;SDS011;23612;50.894;10.700;2023-08-12T00:41:42;5.18;;;4.68;;
20527;SDS011;23612;50.894;10.700;2023-08-12T00:44:08;6.38;;;4.45;;
20527;SDS011;23612;50.894;10.700;2023-08-12T00:46:34;7.50;;;4.22;;
20527;SDS011;23612;50.894;10.700;2023-08-12T00:48:59;4.30;;;3.90;;
20527;SDS011;23612;50.894;10.700;2023-08-12T00:51:25;4.50;;;3.75;;
20527;SDS011;23612;50.894;10.700;2023-08-12T00:53:52;6.57;;;4.30;;
20527;SDS011;23612;50.894;10.700;2023-08-12T00:56:19;6.53;;;4.15;;
20527;SDS011;23612;50.894;10.700;2023-08-12T00:58:45;5.32;;;3.83;;
20527;SDS011;23612;50.894;10.700;2023-08-12T01:01:11;4.00;;;3.70;;
20527;SDS011;23612;50.894;10.700;2023-08-12T01:03:37;5.95;;;4.30;;
20527;SDS011;23612;50.894;10.700;2023-08-12T01:06:02;4.40;;;4.00;;
20527;SDS011;23612;50.894;10.700;2023-08-12T01:08:28;4.45;;;3.85;;
20527;SDS011;23612;50.894;10.700;2023-08-12T01:11:03;7.05;;;4.50;;
20527;SDS011;23612;50.894;10.700;2023-08-12T01:13:46;4.40;;;3.90;;
20527;SDS011;23612;50.894;10.700;2023-08-12T01:16:22;5.25;;;4.28;;
20527;SDS011;23612;50.894;10.700;2023-08-12T01:18:50;5.18;;;4.13;;
20527;SDS011;23612;50.894;10.700;2023-08-12T01:21:16;6.20;;;4.25;;
20527;SDS011;23612;50.894;10.700;2023-08-12T01:23:46;7.20;;;4.55;;
20527;SDS011;23612;50.894;10.700;2023-08-12T01:26:12;5.18;;;3.90;;
20527;SDS011;23612;50.894;10.700;2023-08-12T01:28:37;6.45;;;5.03;;
20527;SDS011;23612;50.894;10.700;2023-08-12T01:31:11;5.38;;;4.38;;
20527;SDS011;23612;50.894;10.700;2023-08-12T01:36:15;6.10;;;4.63;;
20527;SDS011;23612;50.894;10.700;2023-08-12T01:38:42;7.45;;;4.65;;
20527;SDS011;23612;50.894;10.700;2023-08-12T01:41:09;6.35;;;4.93;;
20527;SDS011;23612;50.894;10.700;2023-08-12T01:43:36;7.28;;;5.13;;
20527;SDS011;23612;50.894;10.700;2023-08-12T01:46:02;6.07;;;5.45;;
20527;SDS011;23612;50.894;10.700;2023-08-12T01:48:28;6.35;;;5.68;;
20527;SDS011;23612;50.894;10.700;2023-08-12T01:50:54;6.60;;;5.60;;
20527;SDS011;23612;50.894;10.700;2023-08-12T01:53:19;11.63;;;5.78;;
20527;SDS011;23612;50.894;10.700;2023-08-12T01:55:45;7.15;;;5.18;;
20527;SDS011;23612;50.894;10.700;2023-08-12T01:58:10;5.55;;;5.05;;
20527;SDS011;23612;50.894;10.700;2023-08-12T02:00:36;6.30;;;5.20;;
20527;SDS011;23612;50.894;10.700;2023-08-12T02:03:02;5.18;;;4.70;;
20527;SDS011;23612;50.894;10.700;2023-08-12T02:05:28;7.13;;;5.03;;
20527;SDS011;23612;50.894;10.700;2023-08-12T02:07:53;7.35;;;5.50;;
20527;SDS011;23612;50.894;10.700;2023-08-12T02:10:19;5.30;;;4.80;;
20527;SDS011;23612;50.894;10.700;2023-08-12T02:12:44;6.97;;;4.65;;
20527;SDS011;23612;50.894;10.700;2023-08-12T02:15:10;8.23;;;5.35;;
20527;SDS011;23612;50.894;10.700;2023-08-12T02:17:36;6.15;;;4.80;;
20527;SDS011;23612;50.894;10.700;2023-08-12T02:20:02;5.80;;;5.18;;
20527;SDS011;23612;50.894;10.700;2023-08-12T02:22:29;6.78;;;5.22;;
20527;SDS011;23612;50.894;10.700;2023-08-12T02:24:54;7.85;;;5.38;;
20527;SDS011;23612;50.894;10.700;2023-08-12T02:27:20;6.20;;;5.03;;
20527;SDS011;23612;50.894;10.700;2023-08-12T02:29:45;7.85;;;4.82;;
20527;SDS011;23612;50.894;10.700;2023-08-12T02:32:11;6.78;;;5.30;;
20527;SDS011;23612;50.894;10.700;2023-08-12T02:34:36;5.45;;;4.95;;
20527;SDS011;23612;50.894;10.700;2023-08-12T02:37:02;6.28;;;5.00;;
20527;SDS011;23612;50.894;10.700;2023-08-12T02:39:28;7.10;;;4.93;;
20527;SDS011;23612;50.894;10.700;2023-08-12T02:41:53;7.05;;;4.90;;
20527;SDS011;23612;50.894;10.700;2023-08-12T02:44:19;5.00;;;4.57;;
20527;SDS011;23612;50.894;10.700;2023-08-12T02:46:44;5.30;;;4.68;;
20527;SDS011;23612;50.894;10.700;2023-08-12T02:49:10;9.88;;;4.55;;
20527;SDS011;23612;50.894;10.700;2023-08-12T02:51:35;7.13;;;4.70;;
20527;SDS011;23612;50.894;10.700;2023-08-12T02:54:01;5.30;;;4.25;;
20527;SDS011;23612;50.894;10.700;2023-08-12T02:56:26;5.93;;;4.68;;
20527;SDS011;23612;50.894;10.700;2023-08-12T02:58:52;5.15;;;4.18;;
20527;SDS011;23612;50.894;10.700;2023-08-12T03:01:17;4.95;;;4.30;;
20527;SDS011;23612;50.894;10.700;2023-08-12T03:03:43;4.68;;;4.13;;
20527;SDS011;23612;50.894;10.700;2023-08-12T03:06:09;7.60;;;4.53;;
20527;SDS011;23612;50.894;10.700;2023-08-12T03:08:35;4.47;;;4.07;;
20527;SDS011;23612;50.894;10.700;2023-08-12T03:11:03;9.98;;;4.50;;
20527;SDS011;23612;50.894;10.700;2023-08-12T03:13:29;4.88;;;4.47;;
20527;SDS011;23612;50.894;10.700;2023-08-12T03:15:55;7.45;;;4.53;;
20527;SDS011;23612;50.894;10.700;2023-08-12T03:18:20;4.60;;;3.90;;
20527;SDS011;23612;50.894;10.700;2023-08-12T03:20:46;4.90;;;4.10;;
20527;SDS011;23612;50.894;10.700;2023-08-12T03:23:11;4.65;;;4.25;;
20527;SDS011;23612;50.894;10.700;2023-08-12T03:25:37;4.57;;;3.88;;
20527;SDS011;23612;50.894;10.700;2023-08-12T03:28:03;4.88;;;4.32;;
20527;SDS011;23612;50.894;10.700;2023-08-12T03:30:28;4.68;;;4.07;;
20527;SDS011;23612;50.894;10.700;2023-08-12T03:32:54;6.00;;;4.30;;
20527;SDS011;23612;50.894;10.700;2023-08-12T03:35:19;6.43;;;4.22;;
20527;SDS011;23612;50.894;10.700;2023-08-12T03:37:45;4.55;;;3.72;;
20527;SDS011;23612;50.894;10.700;2023-08-12T03:40:10;4.72;;;4.32;;
20527;SDS011;23612;50.894;10.700;2023-08-12T03:42:36;6.30;;;4.10;;
20527;SDS011;23612;50.894;10.700;2023-08-12T03:45:02;4.88;;;4.13;;
20527;SDS011;23612;50.894;10.700;2023-08-12T03:47:27;8.10;;;4.55;;
20527;SDS011;23612;50.894;10.700;2023-08-12T03:49:53;4.85;;;4.35;;
20527;SDS011;23612;50.894;10.700;2023-08-12T03:52:18;5.60;;;4.15;;
20527;SDS011;23612;50.894;10.700;2023-08-12T03:54:44;5.28;;;4.32;;
20527;SDS011;23612;50.894;10.700;2023-08-12T03:57:10;5.72;;;4.57;;
20527;SDS011;23612;50.894;10.700;2023-08-12T03:59:36;6.80;;;4.40;;
20527;SDS011;23612;50.894;10.700;2023-08-12T04:02:01;5.90;;;4.22;;
20527;SDS011;23612;50.894;10.700;2023-08-12T04:04:27;5.30;;;4.22;;
20527;SDS011;23612;50.894;10.700;2023-08-12T04:06:53;5.75;;;4.00;;
20527;SDS011;23612;50.894;10.700;2023-08-12T04:09:18;4.32;;;3.92;;
20527;SDS011;23612;50.894;10.700;2023-08-12T04:11:44;4.10;;;3.80;;
20527;SDS011;23612;50.894;10.700;2023-08-12T04:14:11;6.20;;;4.82;;
20527;SDS011;23612;50.894;10.700;2023-08-12T04:16:37;5.53;;;4.05;;
20527;SDS011;23612;50.894;10.700;2023-08-12T04:19:02;4.85;;;4.35;;
20527;SDS011;23612;50.894;10.700;2023-08-12T04:21:28;4.75;;;4.35;;
20527;SDS011;23612;50.894;10.700;2023-08-12T04:23:53;5.05;;;4.03;;
20527;SDS011;23612;50.894;10.700;2023-08-12T04:26:19;4.65;;;4.25;;
20527;SDS011;23612;50.894;10.700;2023-08-12T04:28:44;4.38;;;4.03;;
20527;SDS011;23612;50.894;10.700;2023-08-12T04:31:10;4.90;;;4.32;;
20527;SDS011;23612;50.894;10.700;2023-08-12T04:33:35;4.35;;;3.95;;
20527;SDS011;23612;50.894;10.700;2023-08-12T04:36:01;4.30;;;3.90;;
20527;SDS011;23612;50.894;10.700;2023-08-12T04:38:26;5.55;;;4.22;;
20527;SDS011;23612;50.894;10.700;2023-08-12T04:40:52;5.32;;;4.00;;
20527;SDS011;23612;50.894;10.700;2023-08-12T04:43:19;5.40;;;4.10;;
20527;SDS011;23612;50.894;10.700;2023-08-12T04:45:45;6.38;;;4.50;;
20527;SDS011;23612;50.894;10.700;2023-08-12T04:48:11;4.38;;;4.00;;
20527;SDS011;23612;50.894;10.700;2023-08-12T04:50:38;6.53;;;4.00;;
20527;SDS011;23612;50.894;10.700;2023-08-12T04:53:04;9.85;;;3.95;;
20527;SDS011;23612;50.894;10.700;2023-08-12T04:55:30;5.70;;;3.97;;
20527;SDS011;23612;50.894;10.700;2023-08-12T04:57:56;4.80;;;3.72;;
20527;SDS011;23612;50.894;10.700;2023-08-12T05:00:22;4.20;;;3.80;;
20527;SDS011;23612;50.894;10.700;2023-08-12T05:02:48;4.93;;;4.05;;
20527;SDS011;23612;50.894;10.700;2023-08-12T05:05:14;5.30;;;4.68;;
20527;SDS011;23612;50.894;10.700;2023-08-12T05:07:39;5.90;;;4.13;;
20527;SDS011;23612;50.894;10.700;2023-08-12T05:10:05;4.85;;;3.92;;
20527;SDS011;23612;50.894;10.700;2023-08-12T05:12:31;5.88;;;3.80;;
20527;SDS011;23612;50.894;10.700;2023-08-12T05:14:56;5.63;;;4.22;;
20527;SDS011;23612;50.894;10.700;2023-08-12T05:17:22;4.20;;;3.80;;
20527;SDS011;23612;50.894;10.700;2023-08-12T05:19:47;4.90;;;4.40;;
20527;SDS011;23612;50.894;10.700;2023-08-12T05:22:13;4.28;;;3.80;;
20527;SDS011;23612;50.894;10.700;2023-08-12T05:24:38;10.95;;;4.20;;
20527;SDS011;23612;50.894;10.700;2023-08-12T05:27:04;12.25;;;4.57;;
20527;SDS011;23612;50.894;10.700;2023-08-12T05:29:30;17.55;;;4.30;;
20527;SDS011;23612;50.894;10.700;2023-08-12T05:31:55;9.20;;;4.40;;
20527;SDS011;23612;50.894;10.700;2023-08-12T05:34:21;5.13;;;4.30;;
20527;SDS011;23612;50.894;10.700;2023-08-12T05:36:47;6.35;;;3.92;;
20527;SDS011;23612;50.894;10.700;2023-08-12T05:39:12;6.15;;;5.03;;
20527;SDS011;23612;50.894;10.700;2023-08-12T05:41:38;8.45;;;4.43;;
20527;SDS011;23612;50.894;10.700;2023-08-12T05:44:03;8.98;;;4.40;;
20527;SDS011;23612;50.894;10.700;2023-08-12T05:46:29;11.60;;;4.88;;
20527;SDS011;23612;50.894;10.700;2023-08-12T05:48:55;7.03;;;4.90;;
20527;SDS011;23612;50.894;10.700;2023-08-12T05:51:20;6.47;;;4.25;;
20527;SDS011;23612;50.894;10.700;2023-08-12T05:53:46;8.98;;;5.22;;
20527;SDS011;23612;50.894;10.700;2023-08-12T05:56:13;13.30;;;8.98;;
20527;SDS011;23612;50.894;10.700;2023-08-12T05:58:38;8.40;;;4.88;;
20527;SDS011;23612;50.894;10.700;2023-08-12T06:01:04;7.20;;;4.47;;
20527;SDS011;23612;50.894;10.700;2023-08-12T06:03:29;10.00;;;4.90;;
20527;SDS011;23612;50.894;10.700;2023-08-12T06:05:55;6.35;;;4.57;;
20527;SDS011;23612;50.894;10.700;2023-08-12T06:08:20;6.35;;;4.38;;
20527;SDS011;23612;50.894;10.700;2023-08-12T06:10:46;4.65;;;4.30;;
20527;SDS011;23612;50.894;10.700;2023-08-12T06:13:11;6.00;;;4.40;;
20527;SDS011;23612;50.894;10.700;2023-08-12T06:15:37;5.50;;;4.90;;
20527;SDS011;23612;50.894;10.700;2023-08-12T06:18:02;5.30;;;4.60;;
20527;SDS011;23612;50.894;10.700;2023-08-12T06:20:28;5.00;;;4.30;;
20527;SDS011;23612;50.894;10.700;2023-08-12T06:22:53;7.07;;;5.20;;
20527;SDS011;23612;50.894;10.700;2023-08-12T06:25:19;5.45;;;4.95;;
20527;SDS011;23612;50.894;10.700;2023-08-12T06:27:45;8.65;;;4.85;;
20527;SDS011;23612;50.894;10.700;2023-08-12T06:30:12;5.32;;;4.82;;
20527;SDS011;23612;50.894;10.700;2023-08-12T06:32:38;6.22;;;5.50;;
20527;SDS011;23612;50.894;10.700;2023-08-12T06:35:04;7.45;;;5.75;;
20527;SDS011;23612;50.894;10.700;2023-08-12T06:37:30;5.90;;;5.28;;
20527;SDS011;23612;50.894;10.700;2023-08-12T06:39:56;6.22;;;5.00;;
20527;SDS011;23612;50.894;10.700;2023-08-12T06:42:21;7.85;;;5.05;;
20527;SDS011;23612;50.894;10.700;2023-08-12T06:44:53;6.85;;;5.07;;
20527;SDS011;23612;50.894;10.700;2023-08-12T06:47:22;7.43;;;5.50;;
20527;SDS011;23612;50.894;10.700;2023-08-12T06:49:48;7.07;;;5.03;;
20527;SDS011;23612;50.894;10.700;2023-08-12T06:52:13;5.55;;;4.95;;
20527;SDS011;23612;50.894;10.700;2023-08-12T06:54:39;5.43;;;4.95;;
20527;SDS011;23612;50.894;10.700;2023-08-12T06:57:04;5.90;;;4.95;;
20527;SDS011;23612;50.894;10.700;2023-08-12T06:59:30;7.38;;;4.70;;
20527;SDS011;23612;50.894;10.700;2023-08-12T07:01:55;7.53;;;4.68;;
20527;SDS011;23612;50.894;10.700;2023-08-12T07:04:21;5.00;;;4.50;;
20527;SDS011;23612;50.894;10.700;2023-08-12T07:06:47;5.03;;;4.40;;
20527;SDS011;23612;50.894;10.700;2023-08-12T07:09:12;6.90;;;4.60;;
20527;SDS011;23612;50.894;10.700;2023-08-12T07:11:38;5.60;;;4.68;;
20527;SDS011;23612;50.894;10.700;2023-08-12T07:14:04;10.32;;;4.57;;
20527;SDS011;23612;50.894;10.700;2023-08-12T07:16:30;4.65;;;4.15;;
20527;SDS011;23612;50.894;10.700;2023-08-12T07:18:55;6.10;;;4.70;;
20527;SDS011;23612;50.894;10.700;2023-08-12T07:21:21;5.35;;;4.28;;
20527;SDS011;23612;50.894;10.700;2023-08-12T07:23:47;4.88;;;3.97;;
20527;SDS011;23612;50.894;10.700;2023-08-12T07:26:12;6.35;;;4.25;;
20527;SDS011;23612;50.894;10.700;2023-08-12T07:28:38;11.30;;;4.57;;
20527;SDS011;23612;50.894;10.700;2023-08-12T07:31:03;5.55;;;4.45;;
20527;SDS011;23612;50.894;10.700;2023-08-12T07:33:29;6.75;;;4.35;;
20527;SDS011;23612;50.894;10.700;2023-08-12T07:35:54;6.13;;;4.28;;
20527;SDS011;23612;50.894;10.700;2023-08-12T07:38:20;7.05;;;4.72;;
20527;SDS011;23612;50.894;10.700;2023-08-12T07:40:45;4.65;;;4.28;;
20527;SDS011;23612;50.894;10.700;2023-08-12T07:43:13;7.07;;;4.35;;
20527;SDS011;23612;50.894;10.700;2023-08-12T07:45:38;5.40;;;4.90;;
20527;SDS011;23612;50.894;10.700;2023-08-12T07:48:04;8.10;;;7.30;;
20527;SDS011;23612;50.894;10.700;2023-08-12T07:50:29;9.45;;;6.88;;
20527;SDS011;23612;50.894;10.700;2023-08-12T07:52:55;11.82;;;6.80;;
20527;SDS011;23612;50.894;10.700;2023-08-12T07:55:20;5.85;;;4.25;;
20527;SDS011;23612;50.894;10.700;2023-08-12T07:57:46;5.93;;;4.40;;
20527;SDS011;23612;50.894;10.700;2023-08-12T08:00:12;6.15;;;4.78;;
20527;SDS011;23612;50.894;10.700;2023-08-12T08:02:37;5.10;;;4.70;;
20527;SDS011;23612;50.894;10.700;2023-08-12T08:05:03;4.50;;;4.13;;
20527;SDS011;23612;50.894;10.700;2023-08-12T08:07:29;7.55;;;4.40;;
20527;SDS011;23612;50.894;10.700;2023-08-12T08:09:55;6.57;;;5.43;;
20527;SDS011;23612;50.894;10.700;2023-08-12T08:12:20;8.10;;;4.78;;
20527;SDS011;23612;50.894;10.700;2023-08-12T08:14:46;6.93;;;4.60;;
20527;SDS011;23612;50.894;10.700;2023-08-12T08:17:12;5.13;;;4.63;;
20527;SDS011;23612;50.894;10.700;2023-08-12T08:19:37;4.85;;;4.30;;
20527;SDS011;23612;50.894;10.700;2023-08-12T08:22:03;5.55;;;4.82;;
20527;SDS011;23612;50.894;10.700;2023-08-12T08:24:28;7.93;;;5.70;;
20527;SDS011;23612;50.894;10.700;2023-08-12T08:26:54;6.05;;;5.28;;
20527;SDS011;23612;50.894;10.700;2023-08-12T08:29:20;6.15;;;4.38;;
20527;SDS011;23612;50.894;10.700;2023-08-12T08:31:46;4.97;;;4.55;;
20527;SDS011;23612;50.894;10.700;2023-08-12T08:34:12;7.97;;;4.50;;
20527;SDS011;23612;50.894;10.700;2023-08-12T08:36:37;4.93;;;4.53;;
20527;SDS011;23612;50.894;10.700;2023-08-12T08:39:03;5.28;;;4.78;;
20527;SDS011;23612;50.894;10.700;2023-08-12T08:41:30;7.47;;;4.00;;
20527;SDS011;23612;50.894;10.700;2023-08-12T08:43:59;5.53;;;4.20;;
20527;SDS011;23612;50.894;10.700;2023-08-12T08:46:28;9.50;;;4.10;;
20527;SDS011;23612;50.894;10.700;2023-08-12T08:48:54;4.78;;;3.97;;
20527;SDS011;23612;50.894;10.700;2023-08-12T08:51:23;6.20;;;3.70;;
20527;SDS011;23612;50.894;10.700;2023-08-12T08:53:50;5.57;;;3.78;;
20527;SDS011;23612;50.894;10.700;2023-08-12T08:56:19;3.58;;;3.28;;
20527;SDS011;23612;50.894;10.700;2023-08-12T08:58:44;7.30;;;3.20;;
20527;SDS011;23612;50.894;10.700;2023-08-12T09:01:11;3.58;;;3.28;;
20527;SDS011;23612;50.894;10.700;2023-08-12T09:03:38;3.85;;;3.53;;
20527;SDS011;23612;50.894;10.700;2023-08-12T09:06:03;4.07;;;3.30;;
20527;SDS011;23612;50.894;10.700;2023-08-12T09:08:30;4.20;;;3.55;;
20527;SDS011;23612;50.894;10.700;2023-08-12T09:10:57;6.03;;;3.38;;
20527;SDS011;23612;50.894;10.700;2023-08-12T09:13:24;3.25;;;3.05;;
20527;SDS011;23612;50.894;10.700;2023-08-12T09:15:50;3.00;;;2.80;;
20527;SDS011;23612;50.894;10.700;2023-08-12T09:18:16;3.05;;;2.85;;
20527;SDS011;23612;50.894;10.700;2023-08-12T09:20:42;3.50;;;3.20;;
20527;SDS011;23612;50.894;10.700;2023-08-12T09:23:11;5.97;;;2.83;;
20527;SDS011;23612;50.894;10.700;2023-08-12T09:25:41;3.58;;;2.88;;
20527;SDS011;23612;50.894;10.700;2023-08-12T09:28:11;3.28;;;2.95;;
20527;SDS011;23612;50.894;10.700;2023-08-12T09:30:37;3.47;;;3.17;;
20527;SDS011;23612;50.894;10.700;2023-08-12T09:33:04;4.88;;;3.20;;
20527;SDS011;23612;50.894;10.700;2023-08-12T09:35:40;7.35;;;3.25;;
20527;SDS011;23612;50.894;10.700;2023-08-12T09:38:07;4.80;;;3.35;;
20527;SDS011;23612;50.894;10.700;2023-08-12T09:40:36;3.58;;;3.28;;
20527;SDS011;23612;50.894;10.700;2023-08-12T09:43:02;5.93;;;3.85;;
20527;SDS011;23612;50.894;10.700;2023-08-12T09:45:29;3.83;;;3.28;;
20527;SDS011;23612;50.894;10.700;2023-08-12T09:47:56;3.78;;;3.47;;
20527;SDS011;23612;50.894;10.700;2023-08-12T09:50:22;3.30;;;3.00;;
20527;SDS011;23612;50.894;10.700;2023-08-12T09:52:50;4.32;;;3.35;;
20527;SDS011;23612;50.894;10.700;2023-08-12T09:55:17;5.45;;;3.20;;
20527;SDS011;23612;50.894;10.700;2023-08-12T09:57:44;4.97;;;3.38;;
20527;SDS011;23612;50.894;10.700;2023-08-12T10:00:14;4.03;;;3.70;;
20527;SDS011;23612;50.894;10.700;2023-08-12T10:02:43;5.45;;;3.30;;
20527;SDS011;23612;50.894;10.700;2023-08-12T10:05:19;7.93;;;3.83;;
20527;SDS011;23612;50.894;10.700;2023-08-12T10:07:50;5.15;;;3.60;;
20527;SDS011;23612;50.894;10.700;2023-08-12T10:10:17;5.97;;;4.05;;
20527;SDS011;23612;50.894;10.700;2023-08-12T10:12:43;9.52;;;4.25;;
20527;SDS011;23612;50.894;10.700;2023-08-12T10:15:09;4.75;;;3.85;;
20527;SDS011;23612;50.894;10.700;2023-08-12T10:17:35;4.55;;;3.83;;
20527;SDS011;23612;50.894;10.700;2023-08-12T10:20:03;7.35;;;3.75;;
20527;SDS011;23612;50.894;10.700;2023-08-12T10:22:30;4.35;;;3.50;;
20527;SDS011;23612;50.894;10.700;2023-08-12T10:24:59;3.65;;;3.30;;
20527;SDS011;23612;50.894;10.700;2023-08-12T10:27:27;4.60;;;3.40;;
20527;SDS011;23612;50.894;10.700;2023-08-12T10:29:52;3.70;;;3.38;;
20527;SDS011;23612;50.894;10.700;2023-08-12T10:32:21;4.20;;;3.80;;
20527;SDS011;23612;50.894;10.700;2023-08-12T10:34:53;5.00;;;3.80;;
20527;SDS011;23612;50.894;10.700;2023-08-12T10:37:20;5.85;;;3.58;;
20527;SDS011;23612;50.894;10.700;2023-08-12T10:39:46;9.25;;;3.38;;
20527;SDS011;23612;50.894;10.700;2023-08-12T10:42:11;4.30;;;3.47;;
20527;SDS011;23612;50.894;10.700;2023-08-12T10:44:49;4.43;;;3.67;;
20527;SDS011;23612;50.894;10.700;2023-08-12T10:47:19;5.75;;;3.83;;
20527;SDS011;23612;50.894;10.700;2023-08-12T10:49:48;6.43;;;3.80;;
20527;SDS011;23612;50.894;10.700;2023-08-12T10:52:30;4.20;;;3.80;;
20527;SDS011;23612;50.894;10.700;2023-08-12T10:57:43;6.15;;;3.65;;
20527;SDS011;23612;50.894;10.700;2023-08-12T11:03:06;3.58;;;3.30;;
20527;SDS011;23612;50.894;10.700;2023-08-12T11:05:38;4.70;;;3.55;;
20527;SDS011;23612;50.894;10.700;2023-08-12T11:08:03;5.22;;;3.35;;
20527;SDS011;23612;50.894;10.700;2023-08-12T11:10:32;8.30;;;3.65;;
20527;SDS011;23612;50.894;10.700;2023-08-12T11:12:59;3.97;;;3.50;;
20527;SDS011;23612;50.894;10.700;2023-08-12T11:15:32;3.70;;;3.40;;
20527;SDS011;23612;50.894;10.700;2023-08-12T11:18:02;3.60;;;3.30;;
20527;SDS011;23612;50.894;10.700;2023-08-12T11:20:30;5.15;;;3.42;;
20527;SDS011;23612;50.894;10.700;2023-08-12T11:22:56;4.75;;;3.50;;
20527;SDS011;23612;50.894;10.700;2023-08-12T11:25:23;8.65;;;3.60;;
20527;SDS011;23612;50.894;10.700;2023-08-12T11:27:49;3.60;;;3.30;;
20527;SDS011;23612;50.894;10.700;2023-08-12T11:30:16;5.72;;;3.90;;
20527;SDS011;23612;50.894;10.700;2023-08-12T11:32:43;3.25;;;3.05;;
20527;SDS011;23612;50.894;10.700;2023-08-12T11:35:10;3.78;;;2.92;;
20527;SDS011;23612;50.894;10.700;2023-08-12T11:37:38;3.53;;;3.28;;
20527;SDS011;23612;50.894;10.700;2023-08-12T11:40:04;2.80;;;2.60;;
20527;SDS011;23612;50.894;10.700;2023-08-12T11:42:33;5.07;;;3.08;;
20527;SDS011;23612;50.894;10.700;2023-08-12T11:45:00;3.92;;;3.00;;
20527;SDS011;23612;50.894;10.700;2023-08-12T11:47:25;3.22;;;2.35;;
20527;SDS011;23612;50.894;10.700;2023-08-12T11:49:53;6.00;;;2.72;;
20527;SDS011;23612;50.894;10.700;2023-08-12T11:52:19;4.75;;;3.00;;
20527;SDS011;23612;50.894;10.700;2023-08-12T11:54:45;3.13;;;2.83;;
20527;SDS011;23612;50.894;10.700;2023-08-12T11:57:11;3.92;;;2.40;;
20527;SDS011;23612;50.894;10.700;2023-08-12T11:59:37;2.83;;;2.10;;
20527;SDS011;23612;50.894;10.700;2023-08-12T12:02:02;3.42;;;2.28;;
20527;SDS011;23612;50.894;10.700;2023-08-12T12:04:32;2.92;;;2.70;;
20527;SDS011;23612;50.894;10.700;2023-08-12T12:06:58;3.20;;;2.47;;
20527;SDS011;23612;50.894;10.700;2023-08-12T12:09:24;7.40;;;2.60;;
20527;SDS011;23612;50.894;10.700;2023-08-12T12:11:52;4.05;;;2.45;;
20527;SDS011;23612;50.894;10.700;2023-08-12T12:14:20;4.18;;;2.63;;
20527;SDS011;23612;50.894;10.700;2023-08-12T12:16:47;8.32;;;3.08;;
20527;SDS011;23612;50.894;10.700;2023-08-12T12:19:18;5.55;;;2.78;;
20527;SDS011;23612;50.894;10.700;2023-08-12T12:21:48;3.03;;;2.72;;
20527;SDS011;23612;50.894;10.700;2023-08-12T12:24:16;3.70;;;3.08;;
20527;SDS011;23612;50.894;10.700;2023-08-12T12:26:43;3.75;;;3.10;;
20527;SDS011;23612;50.894;10.700;2023-08-12T12:29:09;5.40;;;3.42;;
20527;SDS011;23612;50.894;10.700;2023-08-12T12:31:36;5.45;;;3.20;;
20527;SDS011;23612;50.894;10.700;2023-08-12T12:34:03;5.13;;;3.58;;
20527;SDS011;23612;50.894;10.700;2023-08-12T12:36:30;4.60;;;3.60;;
20527;SDS011;23612;50.894;10.700;2023-08-12T12:38:55;3.47;;;3.00;;
20527;SDS011;23612;50.894;10.700;2023-08-12T12:41:21;4.55;;;4.07;;
20527;SDS011;23612;50.894;10.700;2023-08-12T12:43:47;3.88;;;3.50;;
20527;SDS011;23612;50.894;10.700;2023-08-12T12:46:12;3.70;;;3.40;;
20527;SDS011;23612;50.894;10.700;2023-08-12T12:48:38;5.13;;;3.63;;
20527;SDS011;23612;50.894;10.700;2023-08-12T12:51:04;4.60;;;3.53;;
20527;SDS011;23612;50.894;10.700;2023-08-12T12:53:29;3.90;;;3.50;;
20527;SDS011;23612;50.894;10.700;2023-08-12T12:55:55;6.88;;;3.72;;
20527;SDS011;23612;50.894;10.700;2023-08-12T12:58:22;7.82;;;3.92;;
20527;SDS011;23612;50.894;10.700;2023-08-12T13:00:48;4.70;;;3.45;;
20527;SDS011;23612;50.894;10.700;2023-08-12T13:03:14;3.70;;;3.40;;
20527;SDS011;23612;50.894;10.700;2023-08-12T13:05:39;4.88;;;4.47;;
20527;SDS011;23612;50.894;10.700;2023-08-12T13:08:05;4.25;;;3.85;;
20527;SDS011;23612;50.894;10.700;2023-08-12T13:10:31;5.60;;;4.15;;
20527;SDS011;23612;50.894;10.700;2023-08-12T13:12:56;8.65;;;4.70;;
20527;SDS011;23612;50.894;10.700;2023-08-12T13:15:22;14.23;;;5.57;;
20527;SDS011;23612;50.894;10.700;2023-08-12T13:17:49;9.32;;;4.50;;
20527;SDS011;23612;50.894;10.700;2023-08-12T13:20:14;13.13;;;5.10;;
20527;SDS011;23612;50.894;10.700;2023-08-12T13:22:40;9.90;;;5.28;;
20527;SDS011;23612;50.894;10.700;2023-08-12T13:25:06;9.07;;;5.72;;
20527;SDS011;23612;50.894;10.700;2023-08-12T13:27:31;8.55;;;5.75;;
20527;SDS011;23612;50.894;10.700;2023-08-12T13:29:57;10.52;;;5.55;;
20527;SDS011;23612;50.894;10.700;2023-08-12T13:32:23;9.48;;;5.72;;
20527;SDS011;23612;50.894;10.700;2023-08-12T13:34:48;6.15;;;5.55;;
20527;SDS011;23612;50.894;10.700;2023-08-12T13:37:14;8.93;;;5.72;;
20527;SDS011;23612;50.894;10.700;2023-08-12T13:39:39;7.85;;;5.80;;
20527;SDS011;23612;50.894;10.700;2023-08-12T13:42:05;8.63;;;5.70;;
20527;SDS011;23612;50.894;10.700;2023-08-12T13:44:30;6.68;;;5.97;;
20527;SDS011;23612;50.894;10.700;2023-08-12T13:46:56;11.75;;;6.40;;
20527;SDS011;23612;50.894;10.700;2023-08-12T13:49:21;9.65;;;6.53;;
20527;SDS011;23612;50.894;10.700;2023-08-12T13:51:47;7.60;;;6.38;;
20527;SDS011;23612;50.894;10.700;2023-08-12T13:54:13;11.27;;;6.50;;
20527;SDS011;23612;50.894;10.700;2023-08-12T13:56:38;8.30;;;6.78;;
20527;SDS011;23612;50.894;10.700;2023-08-12T13:59:04;10.05;;;6.38;;
20527;SDS011;23612;50.894;10.700;2023-08-12T14:01:29;7.22;;;6.30;;
20527;SDS011;23612;50.894;10.700;2023-08-12T14:03:55;10.77;;;7.20;;
20527;SDS011;23612;50.894;10.700;2023-08-12T14:06:20;7.03;;;6.15;;
20527;SDS011;23612;50.894;10.700;2023-08-12T14:08:46;11.65;;;7.60;;
20527;SDS011;23612;50.894;10.700;2023-08-12T14:11:12;12.45;;;7.00;;
20527;SDS011;23612;50.894;10.700;2023-08-12T14:13:37;11.35;;;6.20;;
20527;SDS011;23612;50.894;10.700;2023-08-12T14:16:03;10.82;;;8.07;;
20527;SDS011;23612;50.894;10.700;2023-08-12T14:18:28;9.82;;;6.68;;
20527;SDS011;23612;50.894;10.700;2023-08-12T14:20:54;9.27;;;6.70;;
20527;SDS011;23612;50.894;10.700;2023-08-12T14:23:19;8.93;;;6.40;;
20527;SDS011;23612;50.894;10.700;2023-08-12T14:25:45;8.80;;;7.40;;
20527;SDS011;23612;50.894;10.700;2023-08-12T14:28:10;9.70;;;6.80;;
20527;SDS011;23612;50.894;10.700;2023-08-12T14:30:36;12.27;;;7.18;;
20527;SDS011;23612;50.894;10.700;2023-08-12T14:33:02;13.95;;;7.07;;
20527;SDS011;23612;50.894;10.700;2023-08-12T14:35:27;8.60;;;6.93;;